sensor_id;sensor_type;location;lat;lon;timestamp;P1;durP1;ratioP1;P2;durP2;ratioP2
51566;SDS011;37657;53.182;5.638;2023-03-24T00:01:55;11.68;;;7.70;;
51566;SDS011;37657;53.182;5.638;2023-03-24T00:04:21;19.88;;;11.18;;
51566;SDS011;37657;53.182;5.638;2023-03-24T00:06:48;11.55;;;7.25;;
51566;SDS011;37657;53.182;5.638;2023-03-24T00:09:14;11.05;;;7.32;;
51566;SDS011;37657;53.182;5.638;2023-03-24T00:11:41;9.80;;;7.22;;
51566;SDS011;37657;53.182;5.638;2023-03-24T00:14:07;9.23;;;7.53;;
51566;SDS011;37657;53.182;5.638;2023-03-24T00:16:36;15.75;;;7.35;;
51566;SDS011;37657;53.182;5.638;2023-03-24T00:19:07;9.05;;;6.75;;
51566;SDS011;37657;53.182;5.638;2023-03-24T00:21:34;22.63;;;7.38;;
51566;SDS011;37657;53.182;5.638;2023-03-24T00:24:01;11.60;;;6.88;;
51566;SDS011;37657;53.182;5.638;2023-03-24T00:26:29;9.82;;;6.55;;
51566;SDS011;37657;53.182;5.638;2023-03-24T00:28:56;11.27;;;7.25;;
51566;SDS011;37657;53.182;5.638;2023-03-24T00:31:22;9.55;;;6.95;;
51566;SDS011;37657;53.182;5.638;2023-03-24T00:33:48;13.90;;;8.48;;
51566;SDS011;37657;53.182;5.638;2023-03-24T00:36:15;10.35;;;8.52;;
51566;SDS011;37657;53.182;5.638;2023-03-24T00:38:43;10.38;;;7.90;;
51566;SDS011;37657;53.182;5.638;2023-03-24T00:41:11;7.47;;;6.75;;
51566;SDS011;37657;53.182;5.638;2023-03-24T00:43:37;11.25;;;8.70;;
51566;SDS011;37657;53.182;5.638;2023-03-24T00:46:04;12.00;;;8.45;;
51566;SDS011;37657;53.182;5.638;2023-03-24T00:48:35;8.27;;;7.22;;
51566;SDS011;37657;53.182;5.638;2023-03-24T00:51:02;8.52;;;7.60;;
51566;SDS011;37657;53.182;5.638;2023-03-24T00:53:29;7.90;;;6.20;;
51566;SDS011;37657;53.182;5.638;2023-03-24T00:55:55;10.25;;;7.90;;
51566;SDS011;37657;53.182;5.638;2023-03-24T00:58:22;12.70;;;9.15;;
51566;SDS011;37657;53.182;5.638;2023-03-24T01:00:50;11.70;;;7.05;;
51566;SDS011;37657;53.182;5.638;2023-03-24T01:03:17;9.45;;;6.57;;
51566;SDS011;37657;53.182;5.638;2023-03-24T01:05:46;13.20;;;8.30;;
51566;SDS011;37657;53.182;5.638;2023-03-24T01:08:13;13.43;;;8.63;;
51566;SDS011;37657;53.182;5.638;2023-03-24T01:10:40;12.38;;;7.45;;
51566;SDS011;37657;53.182;5.638;2023-03-24T01:13:14;11.18;;;6.85;;
51566;SDS011;37657;53.182;5.638;2023-03-24T01:15:43;10.80;;;6.35;;
51566;SDS011;37657;53.182;5.638;2023-03-24T01:18:09;11.98;;;8.00;;
51566;SDS011;37657;53.182;5.638;2023-03-24T01:20:37;21.92;;;8.57;;
51566;SDS011;37657;53.182;5.638;2023-03-24T01:23:04;8.43;;;6.28;;
51566;SDS011;37657;53.182;5.638;2023-03-24T01:25:31;8.98;;;7.03;;
51566;SDS011;37657;53.182;5.638;2023-03-24T01:27:59;11.23;;;7.82;;
51566;SDS011;37657;53.182;5.638;2023-03-24T01:30:26;9.90;;;7.88;;
51566;SDS011;37657;53.182;5.638;2023-03-24T01:32:53;7.90;;;6.97;;
51566;SDS011;37657;53.182;5.638;2023-03-24T01:35:18;10.43;;;6.82;;
51566;SDS011;37657;53.182;5.638;2023-03-24T01:37:45;9.85;;;7.20;;
51566;SDS011;37657;53.182;5.638;2023-03-24T01:40:15;9.85;;;7.45;;
51566;SDS011;37657;53.182;5.638;2023-03-24T01:42:43;8.43;;;7.32;;
51566;SDS011;37657;53.182;5.638;2023-03-24T01:50:45;10.55;;;6.10;;
51566;SDS011;37657;53.182;5.638;2023-03-24T01:53:16;8.27;;;7.13;;
51566;SDS011;37657;53.182;5.638;2023-03-24T01:55:42;11.70;;;7.15;;
51566;SDS011;37657;53.182;5.638;2023-03-24T01:58:10;8.70;;;7.43;;
51566;SDS011;37657;53.182;5.638;2023-03-24T02:00:36;7.88;;;5.90;;
51566;SDS011;37657;53.182;5.638;2023-03-24T02:03:05;10.98;;;7.70;;
51566;SDS011;37657;53.182;5.638;2023-03-24T02:05:34;9.48;;;6.25;;
51566;SDS011;37657;53.182;5.638;2023-03-24T02:08:04;8.15;;;5.78;;
51566;SDS011;37657;53.182;5.638;2023-03-24T02:10:34;7.80;;;6.38;;
51566;SDS011;37657;53.182;5.638;2023-03-24T02:13:01;7.80;;;6.30;;
51566;SDS011;37657;53.182;5.638;2023-03-24T02:15:28;13.00;;;6.13;;
51566;SDS011;37657;53.182;5.638;2023-03-24T02:20:29;10.27;;;7.97;;
51566;SDS011;37657;53.182;5.638;2023-03-24T02:26:19;8.43;;;6.07;;
51566;SDS011;37657;53.182;5.638;2023-03-24T02:32:05;10.98;;;7.05;;
51566;SDS011;37657;53.182;5.638;2023-03-24T02:38:05;7.20;;;5.35;;
51566;SDS011;37657;53.182;5.638;2023-03-24T02:44:14;6.70;;;5.15;;
51566;SDS011;37657;53.182;5.638;2023-03-24T02:47:00;7.15;;;4.57;;
51566;SDS011;37657;53.182;5.638;2023-03-24T02:49:37;9.30;;;5.90;;
51566;SDS011;37657;53.182;5.638;2023-03-24T02:54:59;6.88;;;3.72;;
51566;SDS011;37657;53.182;5.638;2023-03-24T03:03:13;9.90;;;3.95;;
51566;SDS011;37657;53.182;5.638;2023-03-24T03:05:52;7.60;;;4.28;;
51566;SDS011;37657;53.182;5.638;2023-03-24T03:08:22;8.33;;;4.40;;
51566;SDS011;37657;53.182;5.638;2023-03-24T03:10:51;7.05;;;3.95;;
51566;SDS011;37657;53.182;5.638;2023-03-24T03:13:29;8.32;;;3.65;;
51566;SDS011;37657;53.182;5.638;2023-03-24T03:16:22;5.72;;;3.15;;
51566;SDS011;37657;53.182;5.638;2023-03-24T03:19:02;6.63;;;3.35;;
51566;SDS011;37657;53.182;5.638;2023-03-24T03:21:35;7.45;;;4.40;;
51566;SDS011;37657;53.182;5.638;2023-03-24T03:24:07;7.88;;;3.15;;
51566;SDS011;37657;53.182;5.638;2023-03-24T03:26:35;14.07;;;4.30;;
51566;SDS011;37657;53.182;5.638;2023-03-24T03:29:05;11.90;;;3.90;;
51566;SDS011;37657;53.182;5.638;2023-03-24T03:31:41;8.68;;;4.32;;
51566;SDS011;37657;53.182;5.638;2023-03-24T03:34:20;12.55;;;4.68;;
51566;SDS011;37657;53.182;5.638;2023-03-24T03:37:02;8.18;;;3.67;;
51566;SDS011;37657;53.182;5.638;2023-03-24T03:39:31;7.43;;;3.88;;
51566;SDS011;37657;53.182;5.638;2023-03-24T03:42:01;8.55;;;4.22;;
51566;SDS011;37657;53.182;5.638;2023-03-24T03:44:27;12.13;;;3.72;;
51566;SDS011;37657;53.182;5.638;2023-03-24T03:46:52;6.03;;;4.05;;
51566;SDS011;37657;53.182;5.638;2023-03-24T03:49:19;13.05;;;5.13;;
51566;SDS011;37657;53.182;5.638;2023-03-24T03:51:45;8.07;;;3.75;;
51566;SDS011;37657;53.182;5.638;2023-03-24T03:54:11;11.57;;;4.68;;
51566;SDS011;37657;53.182;5.638;2023-03-24T03:56:38;9.05;;;4.40;;
51566;SDS011;37657;53.182;5.638;2023-03-24T03:59:06;10.75;;;4.60;;
51566;SDS011;37657;53.182;5.638;2023-03-24T04:01:34;10.27;;;4.45;;
51566;SDS011;37657;53.182;5.638;2023-03-24T04:04:09;10.77;;;3.95;;
51566;SDS011;37657;53.182;5.638;2023-03-24T04:07:07;9.55;;;3.60;;
51566;SDS011;37657;53.182;5.638;2023-03-24T04:09:41;9.60;;;4.38;;
51566;SDS011;37657;53.182;5.638;2023-03-24T04:12:23;21.55;;;4.75;;
51566;SDS011;37657;53.182;5.638;2023-03-24T04:15:23;11.93;;;4.63;;
51566;SDS011;37657;53.182;5.638;2023-03-24T04:18:18;11.48;;;3.65;;
51566;SDS011;37657;53.182;5.638;2023-03-24T04:21:30;7.22;;;3.85;;
51566;SDS011;37657;53.182;5.638;2023-03-24T04:27:08;7.60;;;3.70;;
51566;SDS011;37657;53.182;5.638;2023-03-24T04:32:28;17.50;;;4.88;;
51566;SDS011;37657;53.182;5.638;2023-03-24T04:35:05;10.23;;;5.22;;
51566;SDS011;37657;53.182;5.638;2023-03-24T04:37:35;12.85;;;5.65;;
51566;SDS011;37657;53.182;5.638;2023-03-24T04:40:03;14.18;;;4.63;;
51566;SDS011;37657;53.182;5.638;2023-03-24T04:42:55;8.32;;;5.32;;
51566;SDS011;37657;53.182;5.638;2023-03-24T04:45:21;10.13;;;4.38;;
51566;SDS011;37657;53.182;5.638;2023-03-24T04:47:53;11.38;;;4.38;;
51566;SDS011;37657;53.182;5.638;2023-03-24T04:50:41;13.57;;;4.57;;
51566;SDS011;37657;53.182;5.638;2023-03-24T04:53:12;12.43;;;4.50;;
51566;SDS011;37657;53.182;5.638;2023-03-24T04:58:22;9.48;;;4.47;;
51566;SDS011;37657;53.182;5.638;2023-03-24T05:00:47;10.13;;;4.82;;
51566;SDS011;37657;53.182;5.638;2023-03-24T05:03:15;7.85;;;4.38;;
51566;SDS011;37657;53.182;5.638;2023-03-24T05:05:42;10.48;;;5.13;;
51566;SDS011;37657;53.182;5.638;2023-03-24T05:08:10;23.52;;;5.85;;
51566;SDS011;37657;53.182;5.638;2023-03-24T05:10:36;11.77;;;4.93;;
51566;SDS011;37657;53.182;5.638;2023-03-24T05:13:02;10.00;;;4.47;;
51566;SDS011;37657;53.182;5.638;2023-03-24T05:15:29;12.43;;;4.97;;
51566;SDS011;37657;53.182;5.638;2023-03-24T05:17:54;12.60;;;4.40;;
51566;SDS011;37657;53.182;5.638;2023-03-24T05:20:20;10.82;;;3.97;;
51566;SDS011;37657;53.182;5.638;2023-03-24T05:22:47;7.68;;;2.90;;
51566;SDS011;37657;53.182;5.638;2023-03-24T05:25:13;12.00;;;3.80;;
51566;SDS011;37657;53.182;5.638;2023-03-24T05:27:40;14.07;;;5.32;;
51566;SDS011;37657;53.182;5.638;2023-03-24T05:30:06;8.18;;;3.92;;
51566;SDS011;37657;53.182;5.638;2023-03-24T05:32:32;8.35;;;4.60;;
51566;SDS011;37657;53.182;5.638;2023-03-24T05:34:58;9.50;;;4.65;;
51566;SDS011;37657;53.182;5.638;2023-03-24T05:37:23;7.47;;;4.25;;
51566;SDS011;37657;53.182;5.638;2023-03-24T05:39:49;22.60;;;5.32;;
51566;SDS011;37657;53.182;5.638;2023-03-24T05:42:15;7.72;;;4.70;;
51566;SDS011;37657;53.182;5.638;2023-03-24T05:44:41;9.15;;;4.28;;
51566;SDS011;37657;53.182;5.638;2023-03-24T05:47:07;7.57;;;4.35;;
51566;SDS011;37657;53.182;5.638;2023-03-24T05:49:33;12.73;;;4.03;;
51566;SDS011;37657;53.182;5.638;2023-03-24T05:51:58;7.18;;;3.92;;
51566;SDS011;37657;53.182;5.638;2023-03-24T05:54:24;11.20;;;5.35;;
51566;SDS011;37657;53.182;5.638;2023-03-24T05:56:50;13.82;;;5.20;;
51566;SDS011;37657;53.182;5.638;2023-03-24T05:59:16;9.80;;;4.88;;
51566;SDS011;37657;53.182;5.638;2023-03-24T06:01:41;12.50;;;4.63;;
51566;SDS011;37657;53.182;5.638;2023-03-24T06:04:07;8.77;;;3.83;;
51566;SDS011;37657;53.182;5.638;2023-03-24T06:06:33;8.27;;;4.75;;
51566;SDS011;37657;53.182;5.638;2023-03-24T06:08:58;7.10;;;3.50;;
51566;SDS011;37657;53.182;5.638;2023-03-24T06:11:27;14.60;;;4.72;;
51566;SDS011;37657;53.182;5.638;2023-03-24T06:13:52;8.20;;;4.05;;
51566;SDS011;37657;53.182;5.638;2023-03-24T06:16:24;9.18;;;4.03;;
51566;SDS011;37657;53.182;5.638;2023-03-24T06:18:53;8.90;;;4.18;;
51566;SDS011;37657;53.182;5.638;2023-03-24T06:21:19;9.95;;;3.67;;
51566;SDS011;37657;53.182;5.638;2023-03-24T06:23:46;10.52;;;4.60;;
51566;SDS011;37657;53.182;5.638;2023-03-24T06:26:12;12.32;;;4.55;;
51566;SDS011;37657;53.182;5.638;2023-03-24T06:28:39;7.55;;;3.85;;
51566;SDS011;37657;53.182;5.638;2023-03-24T06:31:06;13.63;;;5.57;;
51566;SDS011;37657;53.182;5.638;2023-03-24T06:33:43;18.10;;;5.10;;
51566;SDS011;37657;53.182;5.638;2023-03-24T06:36:09;10.20;;;4.85;;
51566;SDS011;37657;53.182;5.638;2023-03-24T06:38:36;17.63;;;4.47;;
51566;SDS011;37657;53.182;5.638;2023-03-24T06:41:02;19.70;;;5.70;;
51566;SDS011;37657;53.182;5.638;2023-03-24T06:43:28;9.65;;;4.70;;
51566;SDS011;37657;53.182;5.638;2023-03-24T06:45:54;22.30;;;7.15;;
51566;SDS011;37657;53.182;5.638;2023-03-24T06:48:20;8.88;;;4.88;;
51566;SDS011;37657;53.182;5.638;2023-03-24T06:50:46;18.15;;;6.18;;
51566;SDS011;37657;53.182;5.638;2023-03-24T06:53:12;22.92;;;6.65;;
51566;SDS011;37657;53.182;5.638;2023-03-24T06:55:37;9.10;;;5.25;;
51566;SDS011;37657;53.182;5.638;2023-03-24T06:58:03;29.58;;;6.97;;
51566;SDS011;37657;53.182;5.638;2023-03-24T07:00:28;17.77;;;6.22;;
51566;SDS011;37657;53.182;5.638;2023-03-24T07:02:54;23.60;;;7.53;;
51566;SDS011;37657;53.182;5.638;2023-03-24T07:05:20;16.08;;;5.28;;
51566;SDS011;37657;53.182;5.638;2023-03-24T07:07:47;13.45;;;6.20;;
51566;SDS011;37657;53.182;5.638;2023-03-24T07:10:13;13.60;;;5.82;;
51566;SDS011;37657;53.182;5.638;2023-03-24T07:12:39;14.73;;;6.05;;
51566;SDS011;37657;53.182;5.638;2023-03-24T07:15:06;12.68;;;5.85;;
51566;SDS011;37657;53.182;5.638;2023-03-24T07:17:33;13.02;;;6.15;;
51566;SDS011;37657;53.182;5.638;2023-03-24T07:19:59;15.40;;;5.97;;
51566;SDS011;37657;53.182;5.638;2023-03-24T07:22:24;11.10;;;4.75;;
51566;SDS011;37657;53.182;5.638;2023-03-24T07:24:50;23.73;;;6.55;;
51566;SDS011;37657;53.182;5.638;2023-03-24T07:27:16;17.55;;;6.63;;
51566;SDS011;37657;53.182;5.638;2023-03-24T07:29:42;10.90;;;5.32;;
51566;SDS011;37657;53.182;5.638;2023-03-24T07:32:07;19.48;;;6.22;;
51566;SDS011;37657;53.182;5.638;2023-03-24T07:34:33;17.35;;;6.65;;
51566;SDS011;37657;53.182;5.638;2023-03-24T07:37:00;19.27;;;6.70;;
51566;SDS011;37657;53.182;5.638;2023-03-24T07:39:27;15.55;;;6.40;;
51566;SDS011;37657;53.182;5.638;2023-03-24T07:41:52;13.00;;;5.82;;
51566;SDS011;37657;53.182;5.638;2023-03-24T07:44:18;21.05;;;6.70;;
51566;SDS011;37657;53.182;5.638;2023-03-24T07:46:43;16.20;;;6.28;;
51566;SDS011;37657;53.182;5.638;2023-03-24T07:49:09;14.77;;;6.30;;
51566;SDS011;37657;53.182;5.638;2023-03-24T07:51:35;11.55;;;5.28;;
51566;SDS011;37657;53.182;5.638;2023-03-24T07:54:01;14.75;;;6.40;;
51566;SDS011;37657;53.182;5.638;2023-03-24T07:56:26;11.50;;;6.10;;
51566;SDS011;37657;53.182;5.638;2023-03-24T07:58:52;25.60;;;7.00;;
51566;SDS011;37657;53.182;5.638;2023-03-24T08:01:18;25.48;;;7.47;;
51566;SDS011;37657;53.182;5.638;2023-03-24T08:03:43;11.25;;;6.30;;
51566;SDS011;37657;53.182;5.638;2023-03-24T08:06:09;11.70;;;6.47;;
51566;SDS011;37657;53.182;5.638;2023-03-24T08:08:36;12.23;;;6.10;;
51566;SDS011;37657;53.182;5.638;2023-03-24T08:11:02;22.55;;;9.18;;
51566;SDS011;37657;53.182;5.638;2023-03-24T08:13:28;14.02;;;5.57;;
51566;SDS011;37657;53.182;5.638;2023-03-24T08:15:54;17.83;;;6.30;;
51566;SDS011;37657;53.182;5.638;2023-03-24T08:18:20;17.80;;;6.07;;
51566;SDS011;37657;53.182;5.638;2023-03-24T08:20:48;23.10;;;8.20;;
51566;SDS011;37657;53.182;5.638;2023-03-24T08:23:14;18.63;;;8.55;;
51566;SDS011;37657;53.182;5.638;2023-03-24T08:25:42;12.90;;;5.57;;
51566;SDS011;37657;53.182;5.638;2023-03-24T08:28:08;24.13;;;7.93;;
51566;SDS011;37657;53.182;5.638;2023-03-24T08:30:33;14.98;;;6.90;;
51566;SDS011;37657;53.182;5.638;2023-03-24T08:33:00;13.10;;;6.70;;
51566;SDS011;37657;53.182;5.638;2023-03-24T08:35:27;13.05;;;5.80;;
51566;SDS011;37657;53.182;5.638;2023-03-24T08:37:55;19.40;;;7.53;;
51566;SDS011;37657;53.182;5.638;2023-03-24T08:40:24;15.95;;;7.15;;
51566;SDS011;37657;53.182;5.638;2023-03-24T08:42:54;17.45;;;6.47;;
51566;SDS011;37657;53.182;5.638;2023-03-24T08:45:23;26.73;;;8.10;;
51566;SDS011;37657;53.182;5.638;2023-03-24T08:47:52;32.35;;;7.78;;
51566;SDS011;37657;53.182;5.638;2023-03-24T08:50:22;10.68;;;5.72;;
51566;SDS011;37657;53.182;5.638;2023-03-24T08:52:52;18.77;;;7.38;;
51566;SDS011;37657;53.182;5.638;2023-03-24T08:55:18;13.77;;;5.63;;
51566;SDS011;37657;53.182;5.638;2023-03-24T08:57:45;14.45;;;6.97;;
51566;SDS011;37657;53.182;5.638;2023-03-24T09:00:11;18.98;;;7.53;;
51566;SDS011;37657;53.182;5.638;2023-03-24T09:02:41;31.40;;;6.93;;
51566;SDS011;37657;53.182;5.638;2023-03-24T09:05:07;18.77;;;5.93;;
51566;SDS011;37657;53.182;5.638;2023-03-24T09:07:34;14.45;;;6.70;;
51566;SDS011;37657;53.182;5.638;2023-03-24T09:09:59;14.98;;;6.97;;
51566;SDS011;37657;53.182;5.638;2023-03-24T09:12:25;15.02;;;6.18;;
51566;SDS011;37657;53.182;5.638;2023-03-24T09:14:53;28.25;;;6.93;;
51566;SDS011;37657;53.182;5.638;2023-03-24T09:17:19;12.60;;;6.25;;
51566;SDS011;37657;53.182;5.638;2023-03-24T09:19:44;13.23;;;6.47;;
51566;SDS011;37657;53.182;5.638;2023-03-24T09:22:11;22.67;;;6.03;;
51566;SDS011;37657;53.182;5.638;2023-03-24T09:24:39;15.65;;;6.95;;
51566;SDS011;37657;53.182;5.638;2023-03-24T09:27:05;34.42;;;7.78;;
51566;SDS011;37657;53.182;5.638;2023-03-24T09:29:31;26.73;;;7.00;;
51566;SDS011;37657;53.182;5.638;2023-03-24T09:31:56;17.60;;;6.60;;
51566;SDS011;37657;53.182;5.638;2023-03-24T09:34:23;14.80;;;5.68;;
51566;SDS011;37657;53.182;5.638;2023-03-24T09:36:49;17.08;;;5.85;;
51566;SDS011;37657;53.182;5.638;2023-03-24T09:39:15;18.45;;;6.05;;
51566;SDS011;37657;53.182;5.638;2023-03-24T09:41:41;16.67;;;6.18;;
51566;SDS011;37657;53.182;5.638;2023-03-24T09:47:02;14.50;;;5.82;;
51566;SDS011;37657;53.182;5.638;2023-03-24T09:49:45;13.00;;;5.45;;
51566;SDS011;37657;53.182;5.638;2023-03-24T09:52:13;14.23;;;5.85;;
51566;SDS011;37657;53.182;5.638;2023-03-24T09:54:46;13.75;;;5.60;;
51566;SDS011;37657;53.182;5.638;2023-03-24T09:57:18;14.90;;;5.90;;
51566;SDS011;37657;53.182;5.638;2023-03-24T09:59:47;8.18;;;5.25;;
51566;SDS011;37657;53.182;5.638;2023-03-24T10:02:17;17.10;;;5.45;;
51566;SDS011;37657;53.182;5.638;2023-03-24T10:04:44;27.05;;;7.80;;
51566;SDS011;37657;53.182;5.638;2023-03-24T10:07:27;15.75;;;6.65;;
51566;SDS011;37657;53.182;5.638;2023-03-24T10:10:02;24.67;;;6.57;;
51566;SDS011;37657;53.182;5.638;2023-03-24T10:12:34;20.30;;;6.38;;
51566;SDS011;37657;53.182;5.638;2023-03-24T10:15:16;12.75;;;5.93;;
51566;SDS011;37657;53.182;5.638;2023-03-24T10:21:04;16.58;;;7.07;;
51566;SDS011;37657;53.182;5.638;2023-03-24T10:27:05;13.48;;;5.90;;
51566;SDS011;37657;53.182;5.638;2023-03-24T10:30:13;13.57;;;5.45;;
51566;SDS011;37657;53.182;5.638;2023-03-24T10:32:40;12.52;;;5.85;;
51566;SDS011;37657;53.182;5.638;2023-03-24T10:35:06;13.32;;;6.15;;
51566;SDS011;37657;53.182;5.638;2023-03-24T10:37:59;13.15;;;6.22;;
51566;SDS011;37657;53.182;5.638;2023-03-24T10:40:29;14.20;;;5.32;;
51566;SDS011;37657;53.182;5.638;2023-03-24T10:42:56;16.25;;;6.45;;
51566;SDS011;37657;53.182;5.638;2023-03-24T10:45:33;13.35;;;6.55;;
51566;SDS011;37657;53.182;5.638;2023-03-24T10:48:01;13.38;;;5.72;;
51566;SDS011;37657;53.182;5.638;2023-03-24T10:50:29;11.95;;;5.57;;
51566;SDS011;37657;53.182;5.638;2023-03-24T10:52:56;17.38;;;7.07;;
51566;SDS011;37657;53.182;5.638;2023-03-24T10:55:23;14.15;;;5.45;;
51566;SDS011;37657;53.182;5.638;2023-03-24T10:57:56;26.02;;;6.85;;
51566;SDS011;37657;53.182;5.638;2023-03-24T11:00:24;24.92;;;6.72;;
51566;SDS011;37657;53.182;5.638;2023-03-24T11:03:05;11.77;;;5.35;;
51566;SDS011;37657;53.182;5.638;2023-03-24T11:05:36;14.23;;;6.72;;
51566;SDS011;37657;53.182;5.638;2023-03-24T11:10:42;15.45;;;5.13;;
51566;SDS011;37657;53.182;5.638;2023-03-24T11:13:19;25.55;;;7.03;;
51566;SDS011;37657;53.182;5.638;2023-03-24T11:15:53;21.20;;;5.82;;
51566;SDS011;37657;53.182;5.638;2023-03-24T11:18:31;14.10;;;6.70;;
51566;SDS011;37657;53.182;5.638;2023-03-24T11:20:58;15.85;;;5.55;;
51566;SDS011;37657;53.182;5.638;2023-03-24T11:23:32;12.32;;;6.15;;
51566;SDS011;37657;53.182;5.638;2023-03-24T11:31:22;14.57;;;6.28;;
51566;SDS011;37657;53.182;5.638;2023-03-24T11:34:05;13.77;;;6.13;;
51566;SDS011;37657;53.182;5.638;2023-03-24T11:37:00;9.55;;;5.35;;
51566;SDS011;37657;53.182;5.638;2023-03-24T11:39:30;14.95;;;6.05;;
51566;SDS011;37657;53.182;5.638;2023-03-24T11:41:59;14.73;;;6.07;;
51566;SDS011;37657;53.182;5.638;2023-03-24T11:44:43;14.13;;;5.88;;
51566;SDS011;37657;53.182;5.638;2023-03-24T11:52:23;28.17;;;5.93;;
51566;SDS011;37657;53.182;5.638;2023-03-24T11:54:53;8.93;;;4.63;;
51566;SDS011;37657;53.182;5.638;2023-03-24T11:57:24;18.35;;;6.82;;
51566;SDS011;37657;53.182;5.638;2023-03-24T12:00:12;21.95;;;7.57;;
51566;SDS011;37657;53.182;5.638;2023-03-24T12:02:51;11.02;;;4.55;;
51566;SDS011;37657;53.182;5.638;2023-03-24T12:05:25;14.57;;;5.63;;
51566;SDS011;37657;53.182;5.638;2023-03-24T12:08:11;7.55;;;3.83;;
51566;SDS011;37657;53.182;5.638;2023-03-24T12:13:32;17.42;;;6.13;;
51566;SDS011;37657;53.182;5.638;2023-03-24T12:21:33;15.52;;;5.40;;
51566;SDS011;37657;53.182;5.638;2023-03-24T12:24:13;17.15;;;4.68;;
51566;SDS011;37657;53.182;5.638;2023-03-24T12:26:46;7.57;;;4.53;;
51566;SDS011;37657;53.182;5.638;2023-03-24T12:29:19;18.17;;;5.47;;
51566;SDS011;37657;53.182;5.638;2023-03-24T12:32:10;9.85;;;3.90;;
51566;SDS011;37657;53.182;5.638;2023-03-24T12:34:54;11.05;;;4.85;;
51566;SDS011;37657;53.182;5.638;2023-03-24T12:42:43;12.32;;;4.18;;
51566;SDS011;37657;53.182;5.638;2023-03-24T12:45:31;20.20;;;5.75;;
51566;SDS011;37657;53.182;5.638;2023-03-24T12:48:14;9.18;;;4.00;;
51566;SDS011;37657;53.182;5.638;2023-03-24T12:51:00;16.77;;;4.60;;
51566;SDS011;37657;53.182;5.638;2023-03-24T12:56:43;16.52;;;5.13;;
51566;SDS011;37657;53.182;5.638;2023-03-24T12:59:13;11.05;;;4.97;;
51566;SDS011;37657;53.182;5.638;2023-03-24T13:01:45;13.85;;;5.28;;
51566;SDS011;37657;53.182;5.638;2023-03-24T13:04:20;12.20;;;4.35;;
51566;SDS011;37657;53.182;5.638;2023-03-24T13:07:00;21.15;;;5.65;;
51566;SDS011;37657;53.182;5.638;2023-03-24T13:09:51;8.23;;;4.35;;
51566;SDS011;37657;53.182;5.638;2023-03-24T13:20:36;11.25;;;4.15;;
51566;SDS011;37657;53.182;5.638;2023-03-24T13:23:26;9.30;;;4.57;;
51566;SDS011;37657;53.182;5.638;2023-03-24T13:28:54;10.90;;;4.80;;
51566;SDS011;37657;53.182;5.638;2023-03-24T13:31:35;9.63;;;5.50;;
51566;SDS011;37657;53.182;5.638;2023-03-24T13:34:11;10.68;;;5.43;;
51566;SDS011;37657;53.182;5.638;2023-03-24T13:36:54;9.82;;;5.20;;
51566;SDS011;37657;53.182;5.638;2023-03-24T13:39:24;16.63;;;5.50;;
51566;SDS011;37657;53.182;5.638;2023-03-24T13:41:52;12.25;;;6.35;;
51566;SDS011;37657;53.182;5.638;2023-03-24T13:44:24;12.00;;;5.13;;
51566;SDS011;37657;53.182;5.638;2023-03-24T13:46:58;14.65;;;5.32;;
51566;SDS011;37657;53.182;5.638;2023-03-24T13:49:39;9.75;;;4.00;;
51566;SDS011;37657;53.182;5.638;2023-03-24T13:54:52;24.08;;;5.78;;
51566;SDS011;37657;53.182;5.638;2023-03-24T13:57:22;12.95;;;5.80;;
51566;SDS011;37657;53.182;5.638;2023-03-24T13:59:59;10.88;;;4.75;;
51566;SDS011;37657;53.182;5.638;2023-03-24T14:08:27;17.83;;;6.15;;
51566;SDS011;37657;53.182;5.638;2023-03-24T14:14:20;16.52;;;5.45;;
51566;SDS011;37657;53.182;5.638;2023-03-24T14:22:00;12.35;;;4.25;;
51566;SDS011;37657;53.182;5.638;2023-03-24T14:32:39;11.13;;;4.32;;
51566;SDS011;37657;53.182;5.638;2023-03-24T14:38:00;14.40;;;5.65;;
51566;SDS011;37657;53.182;5.638;2023-03-24T14:40:45;6.30;;;2.63;;
51566;SDS011;37657;53.182;5.638;2023-03-24T14:43:26;14.57;;;5.95;;
51566;SDS011;37657;53.182;5.638;2023-03-24T14:48:30;20.38;;;5.05;;
51566;SDS011;37657;53.182;5.638;2023-03-24T14:54:00;12.93;;;4.45;;
51566;SDS011;37657;53.182;5.638;2023-03-24T14:56:30;8.23;;;3.92;;
51566;SDS011;37657;53.182;5.638;2023-03-24T14:59:00;8.38;;;4.30;;
51566;SDS011;37657;53.182;5.638;2023-03-24T15:01:32;10.27;;;4.93;;
51566;SDS011;37657;53.182;5.638;2023-03-24T15:04:05;17.67;;;5.93;;
51566;SDS011;37657;53.182;5.638;2023-03-24T15:06:41;9.70;;;5.07;;
51566;SDS011;37657;53.182;5.638;2023-03-24T15:09:10;7.55;;;4.20;;
51566;SDS011;37657;53.182;5.638;2023-03-24T15:11:37;24.48;;;5.95;;
51566;SDS011;37657;53.182;5.638;2023-03-24T15:14:04;16.10;;;5.70;;
51566;SDS011;37657;53.182;5.638;2023-03-24T15:16:35;17.25;;;5.45;;
51566;SDS011;37657;53.182;5.638;2023-03-24T15:19:09;12.65;;;5.47;;
51566;SDS011;37657;53.182;5.638;2023-03-24T15:21:46;8.52;;;4.07;;
51566;SDS011;37657;53.182;5.638;2023-03-24T15:24:32;14.05;;;5.13;;
51566;SDS011;37657;53.182;5.638;2023-03-24T15:29:35;13.52;;;5.30;;
51566;SDS011;37657;53.182;5.638;2023-03-24T15:32:02;19.85;;;6.38;;
51566;SDS011;37657;53.182;5.638;2023-03-24T15:34:33;9.15;;;4.63;;
51566;SDS011;37657;53.182;5.638;2023-03-24T15:39:47;9.85;;;5.30;;
51566;SDS011;37657;53.182;5.638;2023-03-24T15:42:16;12.48;;;5.07;;
51566;SDS011;37657;53.182;5.638;2023-03-24T15:44:42;14.20;;;6.07;;
51566;SDS011;37657;53.182;5.638;2023-03-24T15:49:55;17.27;;;3.88;;
51566;SDS011;37657;53.182;5.638;2023-03-24T15:54:50;15.75;;;5.43;;
51566;SDS011;37657;53.182;5.638;2023-03-24T15:57:18;10.05;;;4.88;;
51566;SDS011;37657;53.182;5.638;2023-03-24T15:59:50;10.07;;;4.57;;
51566;SDS011;37657;53.182;5.638;2023-03-24T16:05:18;12.85;;;4.50;;
51566;SDS011;37657;53.182;5.638;2023-03-24T16:08:01;9.65;;;3.72;;
51566;SDS011;37657;53.182;5.638;2023-03-24T16:13:20;11.20;;;4.72;;
51566;SDS011;37657;53.182;5.638;2023-03-24T16:18:13;11.85;;;5.47;;
51566;SDS011;37657;53.182;5.638;2023-03-24T16:20:41;19.30;;;5.90;;
51566;SDS011;37657;53.182;5.638;2023-03-24T16:23:08;12.70;;;5.68;;
51566;SDS011;37657;53.182;5.638;2023-03-24T16:25:34;14.15;;;5.22;;
51566;SDS011;37657;53.182;5.638;2023-03-24T16:28:00;16.67;;;5.85;;
51566;SDS011;37657;53.182;5.638;2023-03-24T16:30:25;18.77;;;6.90;;
51566;SDS011;37657;53.182;5.638;2023-03-24T16:32:56;29.58;;;5.97;;
51566;SDS011;37657;53.182;5.638;2023-03-24T16:35:21;16.17;;;5.68;;
51566;SDS011;37657;53.182;5.638;2023-03-24T16:37:47;21.00;;;5.07;;
51566;SDS011;37657;53.182;5.638;2023-03-24T16:40:35;11.15;;;5.03;;
51566;SDS011;37657;53.182;5.638;2023-03-24T16:42:59;11.73;;;4.65;;
51566;SDS011;37657;53.182;5.638;2023-03-24T16:45:26;11.02;;;5.20;;
51566;SDS011;37657;53.182;5.638;2023-03-24T16:47:52;15.73;;;6.03;;
51566;SDS011;37657;53.182;5.638;2023-03-24T16:50:23;11.77;;;5.88;;
51566;SDS011;37657;53.182;5.638;2023-03-24T16:52:55;11.82;;;4.95;;
51566;SDS011;37657;53.182;5.638;2023-03-24T16:55:21;12.25;;;5.75;;
51566;SDS011;37657;53.182;5.638;2023-03-24T16:57:47;21.92;;;5.80;;
51566;SDS011;37657;53.182;5.638;2023-03-24T17:00:13;10.20;;;5.40;;
51566;SDS011;37657;53.182;5.638;2023-03-24T17:02:39;11.55;;;5.78;;
51566;SDS011;37657;53.182;5.638;2023-03-24T17:05:16;18.08;;;5.35;;
51566;SDS011;37657;53.182;5.638;2023-03-24T17:07:45;21.63;;;5.82;;
51566;SDS011;37657;53.182;5.638;2023-03-24T17:10:10;18.58;;;6.07;;
51566;SDS011;37657;53.182;5.638;2023-03-24T17:12:36;18.58;;;6.18;;
51566;SDS011;37657;53.182;5.638;2023-03-24T17:15:02;12.60;;;7.07;;
51566;SDS011;37657;53.182;5.638;2023-03-24T17:17:28;13.18;;;5.57;;
51566;SDS011;37657;53.182;5.638;2023-03-24T17:19:53;11.88;;;5.85;;